Time;durP1;ratioP1;P1;durP2;ratioP2;P2;SDS_P1;SDS_P2;PMS_P1;PMS_P2;Temp;Humidity;BMP_temperature;BMP_pressure;BME280_temperature;BME280_humidity;BME280_pressure;Samples;Min_cycle;Max_cycle;Signal;HPM_P1;HPM_P2
2021/10/14 00:03:21;;;;;;;2.30;2.10;;;22.40;58.70;;;;;;38903912;23;20044;-48
2021/10/14 00:18:23;;;;;;;1.85;1.27;;;22.30;58.90;;;;;;38927314;23;20075;-48
2021/10/14 00:33:25;;;;;;;1.38;1.27;;;22.30;59.00;;;;;;38926441;23;20120;-39
2021/10/14 00:48:27;;;;;;;0.80;0.77;;;22.30;59.00;;;;;;38922361;23;20012;-41
2021/10/14 01:03:29;;;;;;;0.40;0.40;;;22.30;59.10;;;;;;38919406;23;20035;-42
2021/10/14 01:18:31;;;;;;;0.30;0.30;;;22.30;58.50;;;;;;38919987;23;20023;-42
2021/10/14 01:33:33;;;;;;;1.38;0.30;;;22.50;58.90;;;;;;38919481;23;20105;-48
2021/10/14 01:48:35;;;;;;;0.20;0.20;;;23.20;57.80;;;;;;38923784;23;20092;-50
2021/10/14 02:03:37;;;;;;;0.35;0.20;;;23.10;58.60;;;;;;38922739;23;20016;-39
2021/10/14 02:18:39;;;;;;;0.30;0.30;;;22.90;59.20;;;;;;38920707;23;20095;-40
2021/10/14 02:33:41;;;;;;;0.30;0.20;;;22.80;59.80;;;;;;38905483;23;20046;-43
2021/10/14 02:48:43;;;;;;;0.20;0.20;;;22.70;59.60;;;;;;38929748;23;20076;-44
2021/10/14 03:03:45;;;;;;;0.10;0.10;;;22.70;59.70;;;;;;38903252;23;20099;-40
2021/10/14 03:18:48;;;;;;;0.20;0.20;;;22.60;59.70;;;;;;38930447;23;20042;-45
2021/10/14 03:33:50;;;;;;;0.10;0.10;;;22.50;59.70;;;;;;38929039;23;20008;-47
2021/10/14 03:48:52;;;;;;;0.52;0.30;;;22.50;60.00;;;;;;38926991;23;20481;-42
2021/10/14 04:03:55;;;;;;;0.10;0.10;;;22.50;60.10;;;;;;38929457;23;20042;-42
2021/10/14 04:18:57;;;;;;;0.32;0.20;;;22.40;60.60;;;;;;38923721;23;20040;-49
2021/10/14 04:33:59;;;;;;;1.42;0.35;;;22.40;60.60;;;;;;38925846;23;20020;-50
2021/10/14 04:49:02;;;;;;;9.25;3.83;;;22.40;60.60;;;;;;38923228;23;20013;-41
2021/10/14 05:04:04;;;;;;;23.75;5.25;;;22.20;61.10;;;;;;38926751;23;20095;-41
2021/10/14 05:19:06;;;;;;;45.58;28.65;;;22.30;60.60;;;;;;38923710;23;20031;-37
2021/10/14 05:34:08;;;;;;;42.10;26.30;;;22.70;59.60;;;;;;38924057;23;20063;-39
2021/10/14 05:49:10;;;;;;;38.03;25.15;;;22.50;60.00;;;;;;38921672;23;20016;-38
2021/10/14 06:04:12;;;;;;;33.92;22.85;;;22.50;57.20;;;;;;38920617;23;20020;-37
2021/10/14 06:19:14;;;;;;;52.10;34.97;;;22.50;58.00;;;;;;38915798;22;20016;-38
2021/10/14 06:34:17;;;;;;;119.47;87.95;;;22.50;57.60;;;;;;38919161;23;20046;-37
2021/10/14 06:49:19;;;;;;;72.68;53.00;;;22.30;54.90;;;;;;38916667;23;20016;-35
2021/10/14 07:04:21;;;;;;;56.75;44.42;;;22.20;57.20;;;;;;38915600;23;20042;-35
2021/10/14 07:38:44;;;;;;;54.65;42.08;;;22.10;56.50;;;;;;38913368;22;1409170;-46
2021/10/14 07:53:47;;;;;;;37.67;30.33;;;22.10;53.10;;;;;;38969722;22;20016;-46
2021/10/14 08:08:49;;;;;;;43.58;33.70;;;21.80;53.70;;;;;;38968221;23;20032;-47
2021/10/14 08:23:51;;;;;;;39.92;30.38;;;22.00;53.40;;;;;;38966767;22;20015;-48
2021/10/14 08:38:53;;;;;;;42.05;28.48;;;22.00;54.00;;;;;;38925542;22;20080;-47
2021/10/14 08:53:55;;;;;;;40.13;26.42;;;22.30;54.50;;;;;;38923311;23;20099;-45
2021/10/14 09:08:57;;;;;;;30.75;23.50;;;22.60;54.90;;;;;;38923362;23;20076;-46
2021/10/14 09:23:59;;;;;;;30.65;22.80;;;22.60;55.40;;;;;;38917686;22;20049;-47
2021/10/14 09:39:03;;;;;;;56.90;41.78;;;22.50;55.90;;;;;;38921201;22;20012;-47
2021/10/14 09:54:06;;;;;;;71.35;53.67;;;22.40;55.50;;;;;;38920851;22;20036;-46
2021/10/14 10:09:20;;;;;;;71.38;54.63;;;22.40;55.80;;;;;;38918290;22;20039;-46
2021/10/14 10:24:27;;;;;;;59.08;46.03;;;22.20;54.50;;;;;;38918892;22;20036;-46
2021/10/14 10:39:48;;;;;;;47.38;36.80;;;22.20;54.30;;;;;;38917874;22;20041;-45
2021/10/14 10:54:50;;;;;;;43.63;31.42;;;22.20;53.70;;;;;;38916664;22;20038;-48
2021/10/14 11:09:52;;;;;;;55.88;43.70;;;22.20;53.00;;;;;;38912188;22;20039;-49
2021/10/14 11:24:59;;;;;;;52.00;40.15;;;22.10;53.20;;;;;;38904741;22;20026;-46
2021/10/14 11:40:03;;;;;;;44.60;33.22;;;22.20;53.30;;;;;;38904499;22;20012;-46
2021/10/14 11:55:07;;;;;;;35.47;29.05;;;22.20;53.30;;;;;;38910439;23;20103;-47
2021/10/14 12:10:33;;;;;;;82.93;63.72;;;22.20;53.00;;;;;;38922557;22;20035;-38
2021/10/14 12:25:38;;;;;;;58.55;42.65;;;21.80;51.40;;;;;;38932717;22;20075;-44
2021/10/14 12:40:57;;;;;;;47.75;33.00;;;21.50;52.00;;;;;;38922971;22;20012;-45
2021/10/14 12:56:01;;;;;;;28.30;20.90;;;21.50;53.00;;;;;;38922795;22;20024;-46
2021/10/14 13:11:06;;;;;;;84.55;59.67;;;22.10;49.10;;;;;;38930133;22;20142;-45
2021/10/14 13:26:09;;;;;;;64.60;48.17;;;22.20;50.40;;;;;;38928391;22;20036;-43
2021/10/14 13:41:14;;;;;;;13.63;11.52;;;22.40;51.20;;;;;;38928524;22;20038;-35
2021/10/14 13:56:17;;;;;;;9.43;7.90;;;22.50;52.00;;;;;;38915451;22;20016;-42
2021/10/14 14:11:19;;;;;;;8.95;7.70;;;22.50;52.20;;;;;;38921885;23;20076;-41
2021/10/14 14:26:21;;;;;;;14.85;9.95;;;22.50;52.70;;;;;;38925959;22;20095;-36
2021/10/14 14:41:23;;;;;;;25.70;13.75;;;22.40;53.20;;;;;;38925907;22;20076;-47
2021/10/14 14:56:25;;;;;;;26.95;16.58;;;22.40;53.30;;;;;;38922632;22;20071;-38
2021/10/14 15:11:27;;;;;;;32.60;17.85;;;22.30;54.00;;;;;;38924811;22;20016;-49
2021/10/14 15:26:29;;;;;;;27.90;16.48;;;22.20;54.90;;;;;;38917564;22;20046;-38
2021/10/14 15:41:31;;;;;;;29.42;16.08;;;22.20;54.30;;;;;;38911757;22;20038;-38
2021/10/14 15:56:34;;;;;;;25.63;15.02;;;22.10;54.20;;;;;;38922907;22;20012;-39
2021/10/14 16:11:36;;;;;;;31.02;15.38;;;22.00;54.20;;;;;;38922538;22;20063;-39
2021/10/14 16:26:38;;;;;;;17.25;10.48;;;22.00;55.20;;;;;;38916354;22;20024;-53
2021/10/14 16:41:40;;;;;;;20.75;8.98;;;22.50;52.50;;;;;;38918372;22;20042;-54
2021/10/14 16:56:45;;;;;;;11.23;8.02;;;22.50;53.80;;;;;;38919262;22;20012;-53
2021/10/14 17:11:47;;;;;;;19.00;9.63;;;22.40;53.20;;;;;;38919437;22;20047;-48
2021/10/14 17:42:13;;;;;;;275.45;213.25;;;21.90;53.70;;;;;;38910690;22;20018;-47
2021/10/14 17:57:16;;;;;;;171.38;131.48;;;22.20;54.90;;;;;;38922539;22;20027;-56
2021/10/14 18:43:05;;;;;;;32.40;21.65;;;22.10;51.50;;;;;;38905801;23;20067;-44
2021/10/14 18:58:09;;;;;;;47.55;25.95;;;22.00;48.00;;;;;;38910089;22;20435;-45
2021/10/14 19:13:26;;;;;;;53.15;37.33;;;22.10;51.50;;;;;;38911747;22;20020;-39
2021/10/14 20:29:29;;;;;;;23.45;15.50;;;22.20;54.00;;;;;;38927454;22;20075;-45
2021/10/14 20:44:31;;;;;;;18.33;12.63;;;22.20;54.20;;;;;;38933019;23;20067;-40
2021/10/14 21:14:54;;;;;;;10.52;6.88;;;22.90;55.40;;;;;;38926361;22;20035;-45
2021/10/14 21:44:58;;;;;;;7.68;4.65;;;22.90;54.80;;;;;;38921567;22;20015;-41
2021/10/14 22:00:00;;;;;;;5.28;3.97;;;22.90;54.90;;;;;;38925755;23;20034;-37
2021/10/14 22:15:03;;;;;;;4.93;3.65;;;22.80;55.20;;;;;;38927436;22;20020;-37
2021/10/14 22:30:07;;;;;;;5.43;3.83;;;22.70;55.50;;;;;;38921200;22;20019;-45
2021/10/14 22:45:10;;;;;;;5.70;3.10;;;22.60;56.10;;;;;;38922714;22;20075;-45
2021/10/14 23:00:12;;;;;;;3.75;2.75;;;22.60;56.70;;;;;;38917983;22;20020;-37
2021/10/14 23:15:19;;;;;;;5.75;3.38;;;22.50;57.00;;;;;;38919659;23;20016;-46
2021/10/14 23:30:21;;;;;;;4.93;2.45;;;22.50;57.30;;;;;;38917854;22;20023;-45
2021/10/14 23:45:23;;;;;;;3.13;1.88;;;22.50;57.10;;;;;;38915402;22;20020;-42
